Time;durP1;ratioP1;P1;durP2;ratioP2;P2;SDS_P1;SDS_P2;PMS_P1;PMS_P2;Temp;Humidity;BMP_temperature;BMP_pressure;BME280_temperature;BME280_humidity;BME280_pressure;Samples;Min_cycle;Max_cycle;Signal;HPM_P1;HPM_P2
2021/06/10 00:00:11;;;;;;;8.97;8.13;;;14.80;99.90;;;;;;5060001;28;20495;-70
2021/06/10 00:02:37;;;;;;;8.67;7.80;;;14.70;99.90;;;;;;5059217;28;20486;-70
2021/06/10 00:05:04;;;;;;;9.30;8.40;;;14.70;99.90;;;;;;5051647;28;20475;-69
2021/06/10 00:07:31;;;;;;;8.37;7.57;;;14.70;99.90;;;;;;5052158;28;20464;-71
2021/06/10 00:09:57;;;;;;;9.67;8.67;;;14.70;99.90;;;;;;5052387;28;20829;-71
2021/06/10 00:12:23;;;;;;;10.00;8.43;;;14.70;99.90;;;;;;5061922;28;20459;-69
2021/06/10 00:14:49;;;;;;;8.73;7.93;;;14.70;99.90;;;;;;5072336;28;20470;-71
2021/06/10 00:17:17;;;;;;;10.07;8.03;;;14.70;99.90;;;;;;5071839;28;20462;-70
2021/06/10 00:19:44;;;;;;;8.93;7.97;;;14.70;99.90;;;;;;5072324;28;20458;-70
2021/06/10 00:22:10;;;;;;;10.20;8.57;;;14.70;99.90;;;;;;5071475;28;20486;-70
2021/06/10 00:24:37;;;;;;;8.67;7.80;;;14.70;99.90;;;;;;5071995;28;20836;-70
2021/06/10 00:27:03;;;;;;;9.50;8.40;;;14.60;99.90;;;;;;5071798;28;20489;-70
2021/06/10 00:29:30;;;;;;;9.50;8.57;;;14.60;99.90;;;;;;5071590;28;20821;-70
2021/06/10 00:31:56;;;;;;;9.07;8.17;;;14.60;99.90;;;;;;5071683;28;20465;-70
2021/06/10 00:34:23;;;;;;;9.53;8.50;;;14.60;99.90;;;;;;5071381;28;20528;-70
2021/06/10 00:36:50;;;;;;;9.33;8.43;;;14.60;99.90;;;;;;5071913;28;20543;-70
2021/06/10 00:39:16;;;;;;;9.40;8.33;;;14.60;99.90;;;;;;5071749;28;20454;-70
2021/06/10 00:41:42;;;;;;;8.63;7.90;;;14.50;99.90;;;;;;5071139;28;20478;-70
2021/06/10 00:44:09;;;;;;;9.30;8.40;;;14.50;99.90;;;;;;5071697;28;20808;-70
2021/06/10 00:46:36;;;;;;;8.27;7.47;;;14.50;99.90;;;;;;5071127;28;20470;-70
2021/06/10 00:49:04;;;;;;;8.73;7.73;;;14.50;99.90;;;;;;5070963;28;20471;-70
2021/06/10 00:51:31;;;;;;;9.83;8.83;;;14.50;99.90;;;;;;5071270;28;20459;-70
2021/06/10 00:53:59;;;;;;;8.87;7.97;;;14.40;99.90;;;;;;5071301;28;20496;-70
2021/06/10 00:56:26;;;;;;;9.30;8.00;;;14.40;99.90;;;;;;5071266;28;20482;-70
2021/06/10 00:58:53;;;;;;;9.57;8.67;;;14.40;99.90;;;;;;5071131;28;20459;-70
2021/06/10 01:01:20;;;;;;;9.50;8.60;;;14.40;99.90;;;;;;5070839;28;20977;-70
2021/06/10 01:03:46;;;;;;;9.57;8.60;;;14.40;99.90;;;;;;5071039;28;20462;-70
2021/06/10 01:06:23;;;;;;;8.97;8.17;;;14.40;99.90;;;;;;5070916;28;20478;-70
2021/06/10 01:09:00;;;;;;;8.80;8.00;;;14.40;99.90;;;;;;5071281;28;20988;-70
2021/06/10 01:11:37;;;;;;;9.10;8.20;;;14.40;99.90;;;;;;5070466;28;20469;-69
2021/06/10 01:14:11;;;;;;;8.50;7.80;;;14.40;99.90;;;;;;5071079;28;20462;-70
2021/06/10 01:16:39;;;;;;;8.60;7.70;;;14.30;99.90;;;;;;5070664;28;20474;-70
2021/06/10 01:19:10;;;;;;;8.90;8.10;;;14.30;99.90;;;;;;5070935;28;20455;-70
2021/06/10 01:21:38;;;;;;;8.47;7.57;;;14.30;99.90;;;;;;5070429;28;20514;-69
2021/06/10 01:24:22;;;;;;;10.27;7.53;;;14.30;99.90;;;;;;5070765;28;20454;-70
2021/06/10 01:26:58;;;;;;;8.20;7.50;;;14.20;99.90;;;;;;5070861;28;20509;-71
2021/06/10 01:29:27;;;;;;;8.73;8.00;;;14.20;99.90;;;;;;5070412;28;20458;-71
2021/06/10 01:31:54;;;;;;;8.27;7.47;;;14.20;99.90;;;;;;5070651;28;20459;-71
2021/06/10 01:34:23;;;;;;;9.50;8.70;;;14.20;99.90;;;;;;5070141;28;20462;-70
2021/06/10 01:36:51;;;;;;;7.93;7.23;;;14.20;99.90;;;;;;5070751;28;20479;-70
2021/06/10 01:39:29;;;;;;;8.97;8.17;;;14.20;99.90;;;;;;5070453;28;20511;-71
2021/06/10 01:41:57;;;;;;;10.10;8.97;;;14.20;99.90;;;;;;5070300;28;20493;-70
2021/06/10 01:44:26;;;;;;;9.00;8.10;;;14.10;99.90;;;;;;5070589;28;20462;-71
2021/06/10 01:46:52;;;;;;;8.37;7.67;;;14.10;99.90;;;;;;5070147;28;20482;-71
2021/06/10 01:49:21;;;;;;;8.53;7.73;;;14.10;99.90;;;;;;5070477;28;20919;-70
2021/06/10 01:51:47;;;;;;;9.13;8.13;;;14.10;99.90;;;;;;5069951;28;20457;-70
2021/06/10 01:54:15;;;;;;;8.70;7.80;;;14.00;99.90;;;;;;5070420;28;20450;-70
2021/06/10 01:56:43;;;;;;;9.27;8.27;;;14.00;99.90;;;;;;5070571;28;20483;-70
2021/06/10 01:59:13;;;;;;;8.67;7.87;;;14.00;99.90;;;;;;5070097;28;20982;-70
2021/06/10 02:01:41;;;;;;;7.93;7.23;;;13.90;99.90;;;;;;5069322;28;21218;-71
2021/06/10 02:04:10;;;;;;;8.73;7.93;;;14.00;99.90;;;;;;5069938;28;20469;-71
2021/06/10 02:06:40;;;;;;;7.80;7.10;;;14.00;99.90;;;;;;5070482;28;20926;-69
2021/06/10 02:09:07;;;;;;;8.70;7.83;;;13.90;99.90;;;;;;5070141;28;20459;-70
2021/06/10 02:11:34;;;;;;;7.90;7.20;;;13.90;99.90;;;;;;5069961;28;20455;-70
2021/06/10 02:14:01;;;;;;;7.90;7.13;;;13.90;99.90;;;;;;5070469;28;20975;-71
2021/06/10 02:16:28;;;;;;;8.20;7.50;;;13.90;99.90;;;;;;5069897;28;20490;-70
2021/06/10 02:18:56;;;;;;;7.43;6.73;;;13.90;99.90;;;;;;5070452;28;20459;-71
2021/06/10 02:21:22;;;;;;;7.93;7.13;;;13.90;99.90;;;;;;5069703;28;20462;-71
2021/06/10 02:23:49;;;;;;;8.73;7.27;;;13.90;99.90;;;;;;5070398;28;20461;-71
2021/06/10 02:26:16;;;;;;;8.30;7.60;;;13.80;99.90;;;;;;5070090;28;20493;-70
2021/06/10 02:28:43;;;;;;;10.50;7.47;;;13.80;99.90;;;;;;5070044;28;20466;-71
2021/06/10 02:31:11;;;;;;;8.43;7.63;;;13.80;99.90;;;;;;5069974;28;20462;-70
2021/06/10 02:33:39;;;;;;;7.97;7.27;;;13.70;99.90;;;;;;5069890;28;20658;-70
2021/06/10 02:36:09;;;;;;;8.47;7.57;;;13.70;99.90;;;;;;5070171;28;20552;-71
2021/06/10 02:38:40;;;;;;;8.33;7.53;;;13.70;99.90;;;;;;5070257;28;21011;-70
2021/06/10 02:41:07;;;;;;;8.47;7.67;;;13.70;99.90;;;;;;5069581;28;20498;-71
2021/06/10 02:43:34;;;;;;;8.80;7.70;;;13.70;99.90;;;;;;5070247;28;20479;-70
2021/06/10 02:46:01;;;;;;;8.70;7.90;;;13.70;99.90;;;;;;5069850;28;20528;-71
2021/06/10 02:48:29;;;;;;;8.63;7.80;;;13.60;99.90;;;;;;5070094;28;20458;-70
2021/06/10 02:50:57;;;;;;;8.50;7.80;;;13.60;99.90;;;;;;5069783;28;20463;-71
2021/06/10 02:53:27;;;;;;;9.10;8.30;;;13.60;99.90;;;;;;5069713;28;20461;-70
2021/06/10 02:55:56;;;;;;;9.03;8.07;;;13.60;99.90;;;;;;5070022;28;20474;-70
2021/06/10 02:58:24;;;;;;;10.40;7.80;;;13.70;99.90;;;;;;5069625;28;20466;-70
2021/06/10 03:00:51;;;;;;;9.83;7.40;;;13.60;99.90;;;;;;5069840;28;20462;-70
2021/06/10 03:03:18;;;;;;;8.57;7.77;;;13.60;99.90;;;;;;5069560;28;20501;-69
2021/06/10 03:05:45;;;;;;;8.20;7.50;;;13.60;99.90;;;;;;5069992;28;20489;-71
2021/06/10 03:08:14;;;;;;;7.97;7.27;;;13.60;99.90;;;;;;5069799;28;20985;-71
2021/06/10 03:10:42;;;;;;;9.40;8.13;;;13.50;99.90;;;;;;5069683;28;20461;-71
2021/06/10 03:13:09;;;;;;;8.07;7.37;;;13.60;99.90;;;;;;5072896;28;20451;-71
2021/06/10 03:15:36;;;;;;;7.67;6.90;;;13.50;99.90;;;;;;5073007;28;21111;-71
2021/06/10 03:18:04;;;;;;;8.40;7.40;;;13.50;99.90;;;;;;5073321;28;20981;-71
2021/06/10 03:20:31;;;;;;;8.03;7.37;;;13.50;99.90;;;;;;5073252;28;20462;-71
2021/06/10 03:22:58;;;;;;;9.83;8.60;;;13.40;99.90;;;;;;5072722;28;20482;-71
2021/06/10 03:25:26;;;;;;;8.80;7.40;;;13.40;99.90;;;;;;5072751;28;20848;-71
2021/06/10 03:27:54;;;;;;;8.47;7.67;;;13.40;99.90;;;;;;5071676;28;20527;-70
2021/06/10 03:30:20;;;;;;;9.53;8.63;;;13.40;99.90;;;;;;5071999;28;20462;-71
2021/06/10 03:32:48;;;;;;;8.00;7.30;;;13.40;99.90;;;;;;5071450;28;20561;-70
2021/06/10 03:35:15;;;;;;;8.47;7.67;;;13.40;99.90;;;;;;5058494;28;21137;-71
2021/06/10 03:37:42;;;;;;;8.20;7.40;;;13.40;99.90;;;;;;5052136;28;20514;-70
2021/06/10 03:40:11;;;;;;;8.37;7.60;;;13.40;99.90;;;;;;5051497;28;20467;-71
2021/06/10 03:42:38;;;;;;;9.50;8.60;;;13.40;99.90;;;;;;5051458;28;20487;-70
2021/06/10 03:45:07;;;;;;;8.77;7.97;;;13.40;99.90;;;;;;5053731;28;20474;-70
2021/06/10 03:47:34;;;;;;;9.07;8.17;;;13.40;99.90;;;;;;5051851;28;20463;-70
2021/06/10 03:50:00;;;;;;;8.90;8.00;;;13.40;99.90;;;;;;5051884;28;20462;-69
2021/06/10 03:52:28;;;;;;;8.03;7.13;;;13.40;99.90;;;;;;5050936;28;20462;-70
2021/06/10 03:54:56;;;;;;;7.80;7.10;;;13.50;99.90;;;;;;5051760;28;20459;-69
2021/06/10 03:57:23;;;;;;;9.13;8.32;;;13.50;99.90;;;;;;5069447;28;20465;-70
2021/06/10 03:59:49;;;;;;;8.23;7.53;;;13.50;99.90;;;;;;5077271;28;20251;-70
2021/06/10 04:02:17;;;;;;;8.47;7.67;;;13.40;99.90;;;;;;5075632;28;20699;-70
2021/06/10 04:04:44;;;;;;;8.27;7.53;;;13.50;99.90;;;;;;5069575;28;20466;-69
2021/06/10 04:07:10;;;;;;;7.83;7.13;;;13.40;99.90;;;;;;5071588;28;20539;-70
2021/06/10 04:09:38;;;;;;;8.43;7.50;;;13.50;99.90;;;;;;5071155;28;20826;-70
2021/06/10 04:12:06;;;;;;;9.53;7.60;;;13.50;99.90;;;;;;5069472;28;20455;-70
2021/06/10 04:14:32;;;;;;;10.37;7.80;;;13.50;99.90;;;;;;5057060;28;20461;-70
2021/06/10 04:16:58;;;;;;;10.00;9.10;;;13.60;99.90;;;;;;5070010;28;20483;-69
2021/06/10 04:19:26;;;;;;;9.60;8.60;;;13.60;99.90;;;;;;5071084;28;20488;-69
2021/06/10 04:21:53;;;;;;;9.03;8.13;;;13.60;99.90;;;;;;5070694;28;20485;-70
2021/06/10 04:24:19;;;;;;;9.57;8.57;;;13.70;99.90;;;;;;5069993;28;20470;-69
2021/06/10 04:26:45;;;;;;;9.57;8.67;;;13.70;99.90;;;;;;5070174;28;50921;-70
2021/06/10 04:29:12;;;;;;;10.17;9.20;;;13.70;99.90;;;;;;5071425;28;20512;-69
2021/06/10 04:31:38;;;;;;;9.63;8.63;;;13.70;99.90;;;;;;5063005;28;20451;-70
2021/06/10 04:34:04;;;;;;;8.90;8.10;;;13.70;99.90;;;;;;5051474;28;20459;-69
2021/06/10 04:36:32;;;;;;;10.80;8.57;;;13.80;99.90;;;;;;5051614;28;21025;-69
2021/06/10 04:38:58;;;;;;;9.67;8.77;;;13.80;99.90;;;;;;5051521;28;20462;-69
2021/06/10 04:41:24;;;;;;;8.53;7.73;;;13.80;99.90;;;;;;5051507;28;20462;-69
2021/06/10 04:43:50;;;;;;;8.70;7.90;;;13.90;99.90;;;;;;5051516;28;21010;-69
2021/06/10 04:46:17;;;;;;;10.37;9.10;;;13.90;99.90;;;;;;5050951;28;20483;-70
2021/06/10 04:48:43;;;;;;;8.57;7.87;;;14.00;99.90;;;;;;5052132;28;20455;-69
2021/06/10 04:51:09;;;;;;;8.93;8.07;;;14.00;99.90;;;;;;5050724;28;20464;-69
2021/06/10 04:53:40;;;;;;;10.00;9.00;;;14.10;99.90;;;;;;5051697;28;20451;-70
2021/06/10 04:56:06;;;;;;;8.43;7.73;;;14.10;99.90;;;;;;5051214;28;20487;-69
2021/06/10 04:58:32;;;;;;;9.50;8.60;;;14.10;99.90;;;;;;5051347;28;20455;-69
2021/06/10 05:00:58;;;;;;;10.90;9.07;;;14.20;99.90;;;;;;5058619;28;20829;-69
2021/06/10 05:03:25;;;;;;;8.63;7.83;;;14.30;99.90;;;;;;5070629;28;20489;-68
2021/06/10 05:05:51;;;;;;;8.97;8.17;;;14.40;99.90;;;;;;5071161;28;20486;-69
2021/06/10 05:08:17;;;;;;;8.90;8.10;;;14.40;99.90;;;;;;5085401;28;20830;-69
2021/06/10 05:10:45;;;;;;;8.33;7.50;;;14.60;99.90;;;;;;5090780;28;20462;-69
2021/06/10 05:13:11;;;;;;;14.07;8.80;;;14.60;99.90;;;;;;5091167;28;20511;-69
2021/06/10 05:15:37;;;;;;;9.50;8.67;;;14.70;99.90;;;;;;5090893;28;20984;-70
2021/06/10 05:18:04;;;;;;;9.80;8.90;;;14.80;99.90;;;;;;5091110;28;20461;-68
2021/06/10 05:20:30;;;;;;;10.87;9.77;;;14.90;99.90;;;;;;5090968;28;20465;-70
2021/06/10 05:22:57;;;;;;;10.63;9.53;;;15.00;99.90;;;;;;5090545;28;20580;-69
2021/06/10 05:25:23;;;;;;;10.87;9.77;;;15.00;99.90;;;;;;5090774;28;20928;-70
2021/06/10 05:27:51;;;;;;;10.00;9.10;;;15.10;99.90;;;;;;5090666;28;20473;-69
2021/06/10 05:30:18;;;;;;;10.53;9.53;;;15.10;99.90;;;;;;5090804;28;20461;-68
2021/06/10 05:32:44;;;;;;;11.73;10.63;;;15.20;99.90;;;;;;5090486;28;20457;-70
2021/06/10 05:35:11;;;;;;;9.70;8.73;;;15.30;99.90;;;;;;5090877;28;20864;-70
2021/06/10 05:37:38;;;;;;;8.63;7.93;;;15.40;99.90;;;;;;5091256;28;20465;-70
2021/06/10 05:40:06;;;;;;;9.27;8.43;;;15.50;99.90;;;;;;5090358;28;20816;-69
2021/06/10 05:42:32;;;;;;;9.33;8.43;;;15.60;99.90;;;;;;5090550;28;20484;-69
2021/06/10 05:44:59;;;;;;;9.93;9.00;;;15.70;99.90;;;;;;5090465;28;20453;-69
2021/06/10 05:47:26;;;;;;;10.43;8.80;;;15.80;99.90;;;;;;5090816;28;20834;-69
2021/06/10 05:49:52;;;;;;;9.50;8.60;;;15.90;99.90;;;;;;5090684;28;20457;-69
2021/06/10 05:52:18;;;;;;;10.10;9.10;;;15.90;99.90;;;;;;5090021;28;20750;-69
2021/06/10 05:54:44;;;;;;;8.70;7.90;;;16.00;99.90;;;;;;5090749;28;20544;-70
2021/06/10 05:57:11;;;;;;;8.70;7.80;;;16.10;99.90;;;;;;5090183;28;20472;-69
2021/06/10 05:59:38;;;;;;;8.43;7.63;;;16.20;99.90;;;;;;5090563;28;20458;-69
2021/06/10 06:04:33;;;;;;;7.90;7.20;;;16.40;99.90;;;;;;5100082;28;20462;-73
2021/06/10 06:06:59;;;;;;;7.83;7.13;;;16.50;99.90;;;;;;5107613;28;20459;-73
2021/06/10 06:09:25;;;;;;;8.73;8.03;;;16.60;99.90;;;;;;5110617;28;20513;-74
2021/06/10 06:11:54;;;;;;;8.30;7.60;;;16.70;99.90;;;;;;5110260;28;20513;-73
2021/06/10 06:14:25;;;;;;;8.17;7.47;;;16.70;99.90;;;;;;5110692;28;20740;-73
2021/06/10 06:16:51;;;;;;;8.50;7.60;;;16.80;99.90;;;;;;5110556;28;20517;-73
2021/06/10 06:19:18;;;;;;;8.37;7.67;;;16.90;99.90;;;;;;5110900;28;20452;-73
2021/06/10 06:21:46;;;;;;;7.80;7.10;;;17.00;99.90;;;;;;5109773;28;20818;-73
2021/06/10 06:24:13;;;;;;;8.40;7.60;;;17.10;99.90;;;;;;5110856;28;20459;-73
2021/06/10 06:26:39;;;;;;;7.67;7.03;;;17.20;99.90;;;;;;5110255;28;20460;-73
2021/06/10 06:29:08;;;;;;;8.43;7.63;;;17.30;99.90;;;;;;5110374;28;20461;-73
2021/06/10 06:31:34;;;;;;;8.57;7.70;;;17.40;99.90;;;;;;5110719;28;20457;-73
2021/06/10 06:34:00;;;;;;;8.07;7.30;;;17.60;99.90;;;;;;5110257;28;20476;-73
2021/06/10 06:36:27;;;;;;;9.63;7.80;;;17.60;99.90;;;;;;5110766;28;20469;-73
2021/06/10 06:38:56;;;;;;;8.17;7.47;;;17.80;99.90;;;;;;5109944;28;20461;-73
2021/06/10 06:41:22;;;;;;;7.90;7.20;;;17.90;99.90;;;;;;5110428;28;20457;-73
2021/06/10 06:43:48;;;;;;;7.40;6.80;;;18.00;99.90;;;;;;5110455;28;21010;-72
2021/06/10 06:46:15;;;;;;;7.90;7.17;;;18.10;99.90;;;;;;5110602;28;20955;-73
2021/06/10 06:48:41;;;;;;;7.53;6.93;;;18.20;99.90;;;;;;5114656;28;20455;-73
2021/06/10 06:51:09;;;;;;;8.50;6.67;;;18.30;99.90;;;;;;5114027;28;20464;-73
2021/06/10 06:53:35;;;;;;;6.83;6.23;;;18.30;99.90;;;;;;5114721;28;20625;-72
2021/06/10 06:56:04;;;;;;;8.77;8.07;;;18.40;99.90;;;;;;5114099;28;20975;-72
2021/06/10 06:58:31;;;;;;;8.10;7.37;;;18.50;99.90;;;;;;5114503;28;20457;-73
2021/06/10 07:00:58;;;;;;;7.73;7.03;;;18.60;99.90;;;;;;5113991;28;20461;-73
2021/06/10 07:03:24;;;;;;;7.17;6.57;;;18.60;99.90;;;;;;5113686;28;20533;-72
2021/06/10 07:05:52;;;;;;;7.93;7.23;;;18.70;99.90;;;;;;5113913;28;20993;-73
2021/06/10 07:08:19;;;;;;;8.10;7.30;;;18.70;99.90;;;;;;5113745;28;20463;-72
2021/06/10 07:10:45;;;;;;;7.83;7.23;;;18.80;99.90;;;;;;5114024;28;20457;-73
2021/06/10 07:13:13;;;;;;;8.73;7.70;;;18.90;99.90;;;;;;5114010;28;20476;-72
2021/06/10 07:15:41;;;;;;;8.00;7.40;;;18.90;99.90;;;;;;5113928;28;20456;-73
2021/06/10 07:18:07;;;;;;;8.10;7.40;;;19.00;99.90;;;;;;5113880;28;20462;-73
2021/06/10 07:20:33;;;;;;;9.23;8.43;;;19.10;99.90;;;;;;5113613;28;20838;-73
2021/06/10 07:23:00;;;;;;;8.63;7.53;;;19.10;99.90;;;;;;5113206;28;20534;-73
2021/06/10 07:25:27;;;;;;;9.90;8.10;;;19.20;99.90;;;;;;5113794;28;20456;-72
2021/06/10 07:27:53;;;;;;;8.30;7.50;;;19.20;99.90;;;;;;5113471;28;20465;-73
2021/06/10 07:30:22;;;;;;;8.87;8.00;;;19.30;99.90;;;;;;5113814;28;20838;-73
2021/06/10 07:32:48;;;;;;;8.50;7.77;;;19.40;99.90;;;;;;5112845;28;20472;-72
2021/06/10 07:35:15;;;;;;;8.53;7.83;;;19.50;99.90;;;;;;5113680;28;20471;-72
2021/06/10 07:37:42;;;;;;;9.67;8.77;;;19.60;99.90;;;;;;5113853;28;20875;-72
2021/06/10 07:40:09;;;;;;;8.53;7.43;;;19.80;99.90;;;;;;5113475;28;20978;-72
2021/06/10 07:42:36;;;;;;;8.27;7.57;;;19.90;99.90;;;;;;5113171;28;20480;-70
2021/06/10 07:45:02;;;;;;;9.73;8.77;;;20.00;99.90;;;;;;5112868;28;20465;-71
2021/06/10 07:47:29;;;;;;;8.60;7.80;;;20.20;99.90;;;;;;5113412;28;20968;-71
2021/06/10 07:49:55;;;;;;;10.00;9.10;;;20.20;99.90;;;;;;5113220;28;20468;-72
2021/06/10 07:52:22;;;;;;;10.00;8.63;;;20.30;99.90;;;;;;5113137;28;20530;-71
2021/06/10 07:54:48;;;;;;;8.90;8.10;;;20.30;99.90;;;;;;5113140;28;20987;-71
2021/06/10 07:57:15;;;;;;;9.77;8.83;;;20.30;99.90;;;;;;5113089;28;20457;-71
2021/06/10 07:59:41;;;;;;;9.30;8.30;;;20.40;99.90;;;;;;5112060;28;20457;-72
2021/06/10 08:02:08;;;;;;;8.90;8.10;;;20.50;99.90;;;;;;5112080;28;21007;-72
2021/06/10 08:04:36;;;;;;;9.47;8.47;;;20.60;99.90;;;;;;5092894;28;20800;-72
2021/06/10 08:07:02;;;;;;;10.17;9.27;;;20.60;99.90;;;;;;5082463;28;20454;-72
2021/06/10 08:09:32;;;;;;;9.27;8.47;;;20.70;99.90;;;;;;5080424;28;20465;-72
2021/06/10 08:11:58;;;;;;;8.43;7.73;;;20.70;99.90;;;;;;5091817;28;20463;-73
2021/06/10 08:14:25;;;;;;;7.93;7.27;;;20.80;99.90;;;;;;5092288;28;20458;-72
2021/06/10 08:16:51;;;;;;;8.80;8.00;;;20.90;99.90;;;;;;5092404;28;20468;-72
2021/06/10 08:19:18;;;;;;;7.97;7.17;;;21.00;99.90;;;;;;5092301;28;20953;-72
2021/06/10 08:21:45;;;;;;;9.23;8.30;;;21.10;99.90;;;;;;5092260;28;20531;-72
2021/06/10 08:24:14;;;;;;;8.80;7.87;;;21.20;99.90;;;;;;5092561;28;20598;-72
2021/06/10 08:26:41;;;;;;;8.50;7.80;;;21.30;99.90;;;;;;5092281;28;20462;-73
2021/06/10 08:29:08;;;;;;;10.20;9.20;;;21.30;99.90;;;;;;5092462;28;20461;-72
2021/06/10 08:31:34;;;;;;;9.43;8.63;;;21.40;99.90;;;;;;5091637;28;20837;-72
2021/06/10 08:34:00;;;;;;;8.53;7.73;;;21.40;99.90;;;;;;5092001;28;21011;-72
2021/06/10 08:36:26;;;;;;;9.60;8.70;;;21.50;99.90;;;;;;5092066;28;20469;-72
2021/06/10 08:38:54;;;;;;;8.87;8.07;;;21.50;99.90;;;;;;5091743;28;20458;-72
2021/06/10 08:41:20;;;;;;;9.90;8.90;;;21.60;99.90;;;;;;5092040;28;20833;-72
2021/06/10 08:43:47;;;;;;;11.57;10.37;;;21.70;99.90;;;;;;5091415;28;21073;-72
2021/06/10 08:46:14;;;;;;;8.23;7.60;;;21.70;99.90;;;;;;5092191;28;20457;-72
2021/06/10 08:48:42;;;;;;;9.70;8.83;;;21.70;99.90;;;;;;5091529;28;20560;-72
2021/06/10 08:51:10;;;;;;;10.23;9.23;;;21.80;99.90;;;;;;5091532;28;21083;-72
2021/06/10 08:53:36;;;;;;;9.87;8.97;;;21.90;99.90;;;;;;5091568;28;20478;-72
2021/06/10 08:56:05;;;;;;;10.20;9.30;;;22.00;99.90;;;;;;5091067;28;20935;-72
2021/06/10 08:58:33;;;;;;;8.73;7.83;;;22.10;99.90;;;;;;5091659;28;20832;-72
2021/06/10 09:01:00;;;;;;;9.70;8.90;;;22.30;99.90;;;;;;5090430;28;20484;-71
2021/06/10 09:03:29;;;;;;;10.20;9.30;;;22.40;99.90;;;;;;5091489;28;20492;-71
2021/06/10 09:06:05;;;;;;;11.30;10.10;;;22.50;99.90;;;;;;5091164;28;20470;-72
2021/06/10 09:08:31;;;;;;;10.10;9.30;;;22.70;99.90;;;;;;5091558;28;20483;-72
2021/06/10 09:11:12;;;;;;;8.83;8.03;;;22.70;99.90;;;;;;5090386;28;20832;-72
2021/06/10 09:13:44;;;;;;;10.60;9.70;;;22.80;99.90;;;;;;5090937;28;20470;-72
2021/06/10 09:16:25;;;;;;;10.10;9.20;;;22.90;99.90;;;;;;5091141;28;20462;-72
2021/06/10 09:18:54;;;;;;;11.13;10.00;;;23.00;99.90;;;;;;5090606;28;20510;-72
2021/06/10 09:21:25;;;;;;;9.97;9.07;;;23.10;99.90;;;;;;5091045;28;20461;-72
2021/06/10 09:23:51;;;;;;;10.90;9.83;;;23.20;99.90;;;;;;5090287;28;20539;-71
2021/06/10 09:26:19;;;;;;;11.10;10.10;;;23.30;99.90;;;;;;5091159;28;20476;-72
2021/06/10 09:28:50;;;;;;;12.00;9.57;;;23.40;99.90;;;;;;5090671;28;20462;-72
2021/06/10 09:31:31;;;;;;;9.83;9.00;;;23.50;99.90;;;;;;5090338;28;20851;-71
2021/06/10 09:33:57;;;;;;;10.43;9.43;;;23.40;99.90;;;;;;5090653;28;20829;-72
2021/06/10 09:36:25;;;;;;;10.60;9.53;;;23.50;99.90;;;;;;5090797;28;20458;-72
2021/06/10 09:39:10;;;;;;;10.60;9.70;;;23.40;99.90;;;;;;5090650;28;21024;-72
2021/06/10 09:42:04;;;;;;;9.83;9.00;;;23.40;99.90;;;;;;5090127;28;20457;-72
2021/06/10 09:44:38;;;;;;;10.87;9.97;;;23.60;99.90;;;;;;5090980;28;20870;-73
2021/06/10 09:47:05;;;;;;;9.87;8.97;;;23.80;99.90;;;;;;5090187;28;20454;-72
2021/06/10 09:49:31;;;;;;;11.40;10.40;;;23.90;99.90;;;;;;5090959;28;20489;-72
2021/06/10 09:51:57;;;;;;;10.43;9.53;;;24.00;99.90;;;;;;5090126;28;20969;-72
2021/06/10 09:54:42;;;;;;;10.33;9.37;;;24.00;99.90;;;;;;5090561;28;20455;-72
2021/06/10 09:57:12;;;;;;;11.93;10.90;;;24.00;99.90;;;;;;5090563;28;20461;-72
2021/06/10 09:59:47;;;;;;;13.07;11.97;;;24.00;99.90;;;;;;5090309;28;20457;-72
2021/06/10 10:02:26;;;;;;;10.20;9.20;;;24.00;99.90;;;;;;5090085;28;20489;-72
2021/06/10 10:05:00;;;;;;;10.67;9.67;;;24.00;99.90;;;;;;5089962;28;20461;-72
2021/06/10 10:07:28;;;;;;;9.80;9.00;;;24.10;99.90;;;;;;5090203;28;20453;-71
2021/06/10 10:09:59;;;;;;;12.20;11.20;;;24.10;99.90;;;;;;5090470;28;20465;-72
2021/06/10 10:12:28;;;;;;;11.40;10.27;;;24.10;99.90;;;;;;5089676;28;20477;-72
2021/06/10 10:14:55;;;;;;;11.30;10.20;;;24.10;99.90;;;;;;5090300;28;20458;-72
2021/06/10 10:17:23;;;;;;;11.37;10.27;;;24.10;99.90;;;;;;5090026;28;20468;-71
2021/06/10 10:19:50;;;;;;;10.73;9.83;;;24.00;99.90;;;;;;5090235;28;20910;-72
2021/06/10 10:22:16;;;;;;;11.73;10.67;;;23.90;99.90;;;;;;5091458;28;20496;-72
2021/06/10 10:24:43;;;;;;;12.47;11.23;;;23.60;99.90;;;;;;5088004;28;21033;-72
2021/06/10 10:27:12;;;;;;;10.33;9.33;;;23.40;99.90;;;;;;5074152;28;20967;-72
2021/06/10 10:29:42;;;;;;;11.17;9.60;;;23.30;99.90;;;;;;5074045;28;20537;-72
2021/06/10 10:32:13;;;;;;;9.80;8.90;;;23.10;99.90;;;;;;5073808;28;20539;-72
2021/06/10 10:34:40;;;;;;;10.87;9.87;;;22.80;99.90;;;;;;5073813;28;20462;-72
2021/06/10 10:37:23;;;;;;;10.97;9.90;;;22.70;99.90;;;;;;5073828;28;20469;-72
2021/06/10 10:39:52;;;;;;;10.90;10.00;;;22.70;99.90;;;;;;5073521;28;20874;-72
2021/06/10 10:42:34;;;;;;;11.07;9.87;;;22.50;99.90;;;;;;5073555;28;20486;-72
2021/06/10 10:45:14;;;;;;;11.47;10.57;;;22.50;99.90;;;;;;5073847;28;20970;-72
2021/06/10 10:47:45;;;;;;;10.93;10.03;;;22.50;99.90;;;;;;5073579;28;20501;-72
2021/06/10 10:50:21;;;;;;;9.70;8.90;;;22.40;99.90;;;;;;5073706;28;20938;-72
2021/06/10 10:52:56;;;;;;;11.23;10.33;;;22.50;99.90;;;;;;5072869;28;20474;-72
2021/06/10 10:55:30;;;;;;;10.90;9.90;;;22.40;99.90;;;;;;5073782;28;20552;-72
2021/06/10 10:58:01;;;;;;;11.37;10.30;;;22.40;99.90;;;;;;5088024;28;20948;-72
2021/06/10 11:00:50;;;;;;;12.47;11.37;;;22.40;99.90;;;;;;5097480;28;20468;-72
2021/06/10 11:03:24;;;;;;;12.47;11.37;;;22.50;99.90;;;;;;5113848;28;20592;-73
2021/06/10 11:05:52;;;;;;;11.80;10.80;;;22.70;99.90;;;;;;5114126;28;20463;-72
2021/06/10 11:08:18;;;;;;;11.80;10.67;;;23.10;99.90;;;;;;5114517;28;20487;-72
2021/06/10 11:11:00;;;;;;;13.10;11.90;;;23.40;99.90;;;;;;5113542;28;20469;-72
2021/06/10 11:13:28;;;;;;;11.53;10.53;;;23.60;99.90;;;;;;5114039;28;20519;-72
2021/06/10 11:15:57;;;;;;;11.20;10.20;;;23.80;99.90;;;;;;5113726;28;20479;-72
2021/06/10 11:18:44;;;;;;;12.43;11.43;;;24.00;99.90;;;;;;5114003;28;20469;-72
2021/06/10 11:21:11;;;;;;;11.80;10.80;;;24.10;99.90;;;;;;5113241;28;20465;-72
2021/06/10 11:23:38;;;;;;;12.60;11.60;;;24.00;99.90;;;;;;5114281;28;20499;-72
2021/06/10 11:26:14;;;;;;;13.47;12.07;;;23.80;99.90;;;;;;5113973;28;20471;-72
2021/06/10 11:28:40;;;;;;;13.27;12.17;;;23.70;99.90;;;;;;5113606;28;20808;-73
2021/06/10 11:31:16;;;;;;;12.40;11.37;;;23.60;99.90;;;;;;5112893;28;20476;-72
2021/06/10 11:33:43;;;;;;;12.37;11.07;;;23.60;99.90;;;;;;5112781;28;20497;-73
2021/06/10 11:36:11;;;;;;;12.30;11.10;;;23.80;99.90;;;;;;5113537;28;20824;-72
2021/06/10 11:38:39;;;;;;;13.03;11.93;;;24.00;99.90;;;;;;5113721;28;20453;-73
2021/06/10 11:41:07;;;;;;;12.50;11.30;;;24.30;99.90;;;;;;5113513;28;20442;-73
2021/06/10 11:43:35;;;;;;;12.30;11.20;;;24.50;99.90;;;;;;5113725;28;20494;-73
2021/06/10 11:46:04;;;;;;;11.20;10.23;;;24.70;99.90;;;;;;5113246;28;20460;-73
2021/06/10 11:48:34;;;;;;;21.20;15.17;;;24.70;99.90;;;;;;5113730;28;20490;-73
2021/06/10 11:51:01;;;;;;;13.50;12.17;;;24.70;99.90;;;;;;5112909;28;20468;-73
2021/06/10 11:53:29;;;;;;;12.13;11.13;;;24.60;99.90;;;;;;5113646;28;20568;-72
2021/06/10 11:55:56;;;;;;;11.80;10.80;;;24.60;99.90;;;;;;5113345;28;20461;-72
2021/06/10 11:58:26;;;;;;;14.20;12.77;;;24.60;99.90;;;;;;5113509;28;20511;-73
2021/06/10 12:00:53;;;;;;;12.23;11.13;;;24.60;99.90;;;;;;5112851;28;20812;-73
2021/06/10 12:03:20;;;;;;;10.70;9.80;;;24.60;99.90;;;;;;5121730;22;20840;-69
2021/06/10 12:05:50;;;;;;;12.50;11.50;;;24.80;99.90;;;;;;5083596;28;20968;-68
2021/06/10 12:08:19;;;;;;;11.43;10.50;;;24.90;99.90;;;;;;5089561;28;21151;-69
2021/06/10 12:10:57;;;;;;;13.43;12.33;;;24.80;99.90;;;;;;5091963;28;20540;-69
2021/06/10 12:13:29;;;;;;;12.80;11.80;;;24.60;99.90;;;;;;5092400;28;20566;-69
2021/06/10 12:15:56;;;;;;;12.93;11.83;;;24.40;99.90;;;;;;5092259;28;20458;-69
2021/06/10 12:18:22;;;;;;;13.10;12.03;;;24.20;99.90;;;;;;5092505;28;20465;-69
2021/06/10 12:20:52;;;;;;;12.00;11.00;;;24.10;99.90;;;;;;5091564;28;20969;-69
2021/06/10 12:23:21;;;;;;;12.93;11.70;;;24.20;99.90;;;;;;5092249;28;20485;-68
2021/06/10 12:25:53;;;;;;;12.30;11.30;;;24.20;99.90;;;;;;5091988;28;20465;-69
2021/06/10 12:28:34;;;;;;;11.80;10.80;;;24.20;99.90;;;;;;5092255;28;20458;-69
2021/06/10 12:31:03;;;;;;;12.30;11.30;;;24.20;99.90;;;;;;5091980;28;20457;-68
2021/06/10 12:33:30;;;;;;;12.43;11.23;;;24.10;99.90;;;;;;5091671;28;20888;-69
2021/06/10 12:35:58;;;;;;;12.53;11.53;;;24.10;99.90;;;;;;5092052;28;20899;-69
2021/06/10 12:38:29;;;;;;;12.57;11.43;;;24.00;99.90;;;;;;5091668;28;20527;-68
2021/06/10 12:41:10;;;;;;;13.60;12.50;;;24.00;99.90;;;;;;5071771;28;20458;-69
2021/06/10 12:43:36;;;;;;;13.07;11.87;;;23.90;99.90;;;;;;5070751;28;20490;-69
2021/06/10 12:46:04;;;;;;;13.83;12.33;;;24.00;99.90;;;;;;5071315;28;20469;-69
2021/06/10 12:48:32;;;;;;;13.20;12.10;;;24.00;99.90;;;;;;5071477;28;20464;-68